Independence — WDG9585 — position and weather

sailwx.info

Track history (hours):
 
Tides and Currents Weather Stations Pressure Air Temp Water Temp Dewpoint Dewpoint Depression Visibility Wind Speed Wind Dir Waves Ship Positions

Independence

Owner: Enterprise Marine Services, LLC, San Antonio, TX. More information available from US FCC via Universal Licensing System and Coast Guard Vessel Documentation Center.

Last reported at 2017-Nov-24 14:48 UTC. Time now 2017-Nov-24 20:51 UTC.
Position N 29°60' W 093°55'.

Length 27 m; draft 3 m.

Type: . MMSI: 367589280.

Date/timePositionNaut miles runAvg speedWind from/ knotsBaromVisibWave heightAir tempDewpointWater temp
2017-Nov-24 14:48N 29°60' W 093°55'  
2017-Nov-15 06:57N 29°29' W 094°52'4 8.6
2017-Nov-15 06:30N 29°32' W 094°54'4 8.6
2017-Nov-15 06:00N 29°36' W 094°57'4 8.7
2017-Nov-15 05:30N 29°40' W 094°58'5 8.2
2017-Nov-15 04:56N 29°44' W 095°01'4 8.1
2017-Nov-15 04:29N 29°46' W 095°05'4 7.9
2017-Nov-15 04:00N 29°44' W 095°09'3 5.1
2017-Nov-15 03:28N 29°45' W 095°12'0 0.0
2017-Nov-14 20:35N 29°45' W 095°12'0 0.0
2017-Nov-14 20:28N 29°45' W 095°12'  
Track history (hours):
 
Tides and Currents Weather Stations Pressure Air Temp Water Temp Dewpoint Dewpoint Depression Visibility Wind Speed Wind Dir Waves Ship Positions

Independence

Owner: Enterprise Marine Services, LLC, San Antonio, TX. More information available from US FCC via Universal Licensing System and Coast Guard Vessel Documentation Center.

Last reported at 2017-Nov-24 14:48 UTC. Time now 2017-Nov-24 20:51 UTC.
Position N 29°60' W 093°55'.

Length 27 m; draft 3 m.

Type: . MMSI: 367589280.

Date/timePositionNaut miles runAvg speedWind from/ knotsBaromVisibWave heightAir tempDewpointWater temp
2017-Nov-24 14:48N 29°60' W 093°55'  
2017-Nov-15 06:57N 29°29' W 094°52'4 8.6
2017-Nov-15 06:30N 29°32' W 094°54'4 8.6
2017-Nov-15 06:00N 29°36' W 094°57'4 8.7
2017-Nov-15 05:30N 29°40' W 094°58'5 8.2
2017-Nov-15 04:56N 29°44' W 095°01'4 8.1
2017-Nov-15 04:29N 29°46' W 095°05'4 7.9
2017-Nov-15 04:00N 29°44' W 095°09'3 5.1
2017-Nov-15 03:28N 29°45' W 095°12'0 0.0
2017-Nov-14 20:35N 29°45' W 095°12'0 0.0
2017-Nov-14 20:28N 29°45' W 095°12'  

Dump ship's entire track history